Time;durP1;ratioP1;P1;durP2;ratioP2;P2;SDS_P1;SDS_P2;PMS_P1;PMS_P2;Temp;Humidity;BMP_temperature;BMP_pressure;BME280_temperature;BME280_humidity;BME280_pressure;Samples;Min_cycle;Max_cycle;Signal;HPM_P1;HPM_P2
2024/03/27 00:00:05;;;;;;;;;;;;;;;;;;412607;24;1010;-83
2024/03/27 00:00:16;;;;;;;;;;;;;;;;;;412420;24;1407;-81
2024/03/27 00:00:26;;;;;;;;;;;;;;;;;;412500;24;1097;-82
2024/03/27 00:00:39;;;;;;;;;;;;;;;;;;414405;23;988;-82
2024/03/27 00:00:49;;;;;;;;;;;;;;;;;;416385;23;1248;-82
2024/03/27 00:01:05;;;;;;;;;;;;;;;;;;416280;23;983;-83
2024/03/27 00:01:15;;;;;;;;;;;;;;;;;;416486;23;1002;-83
2024/03/27 00:01:26;;;;;;;;;;;;;;;;;;414055;23;1265;-82
2024/03/27 00:01:36;;;;;;;;;;;;;;;;;;416482;23;962;-82
2024/03/27 00:01:47;;;;;;;;;;;;;;;;;;416416;23;1161;-82
2024/03/27 00:01:57;;;;;;;;;;;;;;;;;;414462;23;1244;-83
2024/03/27 00:02:07;;;;;;;;;;;;;;;;;;414471;23;1276;-82
2024/03/27 00:02:18;;;;;;;;;;;;;;;;;;414586;23;875;-83
2024/03/27 00:02:28;;;;;;;;;;;;;;;;;;414510;23;1014;-82
2024/03/27 00:02:38;;;;;;;;;;;;;;;;;;414624;23;986;-82
2024/03/27 00:02:48;;;;;;;;;;;;;;;;;;414463;23;1345;-82
2024/03/27 00:02:59;;;;;;;;;;;;;;;;;;414511;23;1309;-82
2024/03/27 00:03:10;;;;;;;;;;;;;;;;;;414614;23;951;-82
2024/03/27 00:03:20;;;;;;;;;;;;;;;;;;412617;24;1003;-82
2024/03/27 00:03:30;;;;;;;;;;;;;;;;;;410487;24;1255;-83
2024/03/27 00:03:40;;;;;;;;;;;;;;;;;;412624;24;1011;-83
2024/03/27 00:03:50;;;;;;;;;;;;;;;;;;414190;23;1179;-82
2024/03/27 00:04:01;;;;;;;;;;;;;;;;;;416536;23;934;-82
2024/03/27 00:04:12;;;;;;;;;;;;;;;;;;416417;23;987;-82
2024/03/27 00:04:23;;;;;;;;;;;;;;;;;;414456;23;1278;-82
2024/03/27 00:04:33;;;;;;;;;;;;;;;;;;414358;23;982;-82
2024/03/27 00:04:43;;;;;;;;;;;;;;;;;;416397;23;1174;-83
2024/03/27 00:04:53;;;;;;;;;;;;;;;;;;416342;23;1144;-83
2024/03/27 00:05:04;;;;;;;;;;;;;;;;;;418519;23;990;-82
2024/03/27 00:05:14;;;;;;;;;;;;;;;;;;414048;23;1939;-82
2024/03/27 00:05:24;;;;;;;;;;;;;;;;;;414650;23;967;-82
2024/03/27 00:05:36;;;;;;;;;;;;;;;;;;416421;23;1535;-82
2024/03/27 00:05:46;;;;;;;;;;;;;;;;;;412528;24;1263;-82
2024/03/27 00:05:56;;;;;;;;;;;;;;;;;;412345;24;1418;-83
2024/03/27 00:06:07;;;;;;;;;;;;;;;;;;414557;23;1006;-83
2024/03/27 00:06:21;;;;;;;;;;;;;;;;;;414181;23;1126;-82
2024/03/27 00:06:31;;;;;;;;;;;;;;;;;;418089;23;1274;-82
2024/03/27 00:06:41;;;;;;;;;;;;;;;;;;416476;23;1344;-82
2024/03/27 00:06:52;;;;;;;;;;;;;;;;;;414271;23;1184;-82
2024/03/27 00:07:02;;;;;;;;;;;;;;;;;;414423;23;947;-82
2024/03/27 00:07:12;;;;;;;;;;;;;;;;;;414253;23;982;-82
2024/03/27 00:07:22;;;;;;;;;;;;;;;;;;414625;23;864;-82
2024/03/27 00:07:33;;;;;;;;;;;;;;;;;;414588;23;947;-82
2024/03/27 00:07:43;;;;;;;;;;;;;;;;;;414509;23;994;-82
2024/03/27 00:07:53;;;;;;;;;;;;;;;;;;412434;24;1155;-83
2024/03/27 00:08:03;;;;;;;;;;;;;;;;;;412598;24;963;-82
2024/03/27 00:08:14;;;;;;;;;;;;;;;;;;412569;24;1018;-82
2024/03/27 00:08:25;;;;;;;;;;;;;;;;;;414325;23;974;-83
2024/03/27 00:08:35;;;;;;;;;;;;;;;;;;412572;24;955;-83
2024/03/27 00:08:45;;;;;;;;;;;;;;;;;;412713;24;959;-83
2024/03/27 00:08:56;;;;;;;;;;;;;;;;;;412649;24;982;-82
2024/03/27 00:09:08;;;;;;;;;;;;;;;;;;414391;23;1265;-83
2024/03/27 00:09:18;;;;;;;;;;;;;;;;;;414531;23;993;-82
2024/03/27 00:09:28;;;;;;;;;;;;;;;;;;414525;23;1188;-82
2024/03/27 00:09:38;;;;;;;;;;;;;;;;;;412563;24;1273;-82
2024/03/27 00:09:49;;;;;;;;;;;;;;;;;;416357;23;1180;-82
2024/03/27 00:09:59;;;;;;;;;;;;;;;;;;416454;23;1257;-83
2024/03/27 00:10:09;;;;;;;;;;;;;;;;;;416425;23;1269;-82
2024/03/27 00:10:19;;;;;;;;;;;;;;;;;;418458;23;986;-82
2024/03/27 00:10:30;;;;;;;;;;;;;;;;;;416258;23;978;-82
2024/03/27 00:10:40;;;;;;;;;;;;;;;;;;418589;23;943;-82
2024/03/27 00:10:50;;;;;;;;;;;;;;;;;;416555;23;994;-82
2024/03/27 00:11:01;;;;;;;;;;;;;;;;;;410666;24;1281;-82
2024/03/27 00:11:11;;;;;;;;;;;;;;;;;;412586;24;927;-82
2024/03/27 00:11:24;;;;;;;;;;;;;;;;;;412687;24;903;-82
2024/03/27 00:11:34;;;;;;;;;;;;;;;;;;412737;23;974;-82
2024/03/27 00:11:44;;;;;;;;;;;;;;;;;;412663;24;967;-82
2024/03/27 00:11:55;;;;;;;;;;;;;;;;;;412561;24;986;-82
2024/03/27 00:12:05;;;;;;;;;;;;;;;;;;414535;23;994;-82
2024/03/27 00:12:16;;;;;;;;;;;;;;;;;;416385;23;1090;-83
2024/03/27 00:12:27;;;;;;;;;;;;;;;;;;416508;23;998;-82
2024/03/27 00:12:37;;;;;;;;;;;;;;;;;;416476;23;1264;-82
2024/03/27 00:12:47;;;;;;;;;;;;;;;;;;416492;23;1156;-82
2024/03/27 00:12:57;;;;;;;;;;;;;;;;;;416561;23;974;-83
2024/03/27 00:13:08;;;;;;;;;;;;;;;;;;416438;23;1357;-83
2024/03/27 00:13:18;;;;;;;;;;;;;;;;;;416421;23;994;-82
2024/03/27 00:13:28;;;;;;;;;;;;;;;;;;416343;23;1261;-82
2024/03/27 00:13:38;;;;;;;;;;;;;;;;;;414494;23;947;-82
2024/03/27 00:13:49;;;;;;;;;;;;;;;;;;414685;23;951;-82
2024/03/27 00:13:59;;;;;;;;;;;;;;;;;;414386;23;1002;-83
2024/03/27 00:14:11;;;;;;;;;;;;;;;;;;418547;23;1026;-83
2024/03/27 00:14:21;;;;;;;;;;;;;;;;;;414432;23;1328;-83
2024/03/27 00:14:31;;;;;;;;;;;;;;;;;;416590;23;866;-83
2024/03/27 00:14:41;;;;;;;;;;;;;;;;;;416497;23;963;-83
2024/03/27 00:14:52;;;;;;;;;;;;;;;;;;412497;23;948;-83
2024/03/27 00:15:03;;;;;;;;;;;;;;;;;;412510;24;959;-83
2024/03/27 00:15:13;;;;;;;;;;;;;;;;;;412671;24;1183;-83
2024/03/27 00:15:24;;;;;;;;;;;;;;;;;;412598;24;951;-83
2024/03/27 00:15:34;;;;;;;;;;;;;;;;;;412612;24;994;-83
2024/03/27 00:15:54;;;;;;;;;;;;;;;;;;412659;24;1012;-82
2024/03/27 00:16:04;;;;;;;;;;;;;;;;;;412431;24;967;-82
2024/03/27 00:16:15;;;;;;;;;;;;;;;;;;412462;24;955;-82
2024/03/27 00:16:25;;;;;;;;;;;;;;;;;;412469;24;915;-83
2024/03/27 00:16:35;;;;;;;;;;;;;;;;;;414512;23;879;-82
2024/03/27 00:16:45;;;;;;;;;;;;;;;;;;416398;23;1282;-82
2024/03/27 00:16:56;;;;;;;;;;;;;;;;;;416517;23;1623;-82
2024/03/27 00:17:06;;;;;;;;;;;;;;;;;;416541;23;1026;-82
2024/03/27 00:17:16;;;;;;;;;;;;;;;;;;416448;23;959;-82
2024/03/27 00:17:26;;;;;;;;;;;;;;;;;;416438;23;951;-82
2024/03/27 00:17:36;;;;;;;;;;;;;;;;;;418423;23;1267;-82
2024/03/27 00:17:47;;;;;;;;;;;;;;;;;;416423;23;1210;-82
2024/03/27 00:17:57;;;;;;;;;;;;;;;;;;416439;23;1241;-82
2024/03/27 00:18:07;;;;;;;;;;;;;;;;;;416270;23;1017;-82
2024/03/27 00:18:18;;;;;;;;;;;;;;;;;;414455;23;978;-82
2024/03/27 00:18:28;;;;;;;;;;;;;;;;;;414441;23;1297;-82
2024/03/27 00:18:38;;;;;;;;;;;;;;;;;;416394;23;982;-82
2024/03/27 00:18:50;;;;;;;;;;;;;;;;;;416328;23;875;-83
2024/03/27 00:19:00;;;;;;;;;;;;;;;;;;416460;23;1165;-82
2024/03/27 00:19:11;;;;;;;;;;;;;;;;;;418276;23;776;-83
2024/03/27 00:19:21;;;;;;;;;;;;;;;;;;418388;23;1176;-82
2024/03/27 00:19:31;;;;;;;;;;;;;;;;;;418267;23;757;-82
2024/03/27 00:19:42;;;;;;;;;;;;;;;;;;418471;23;848;-82
2024/03/27 00:19:52;;;;;;;;;;;;;;;;;;418432;23;1010;-82
2024/03/27 00:20:02;;;;;;;;;;;;;;;;;;418379;23;982;-82
2024/03/27 00:20:13;;;;;;;;;;;;;;;;;;418378;23;938;-82
2024/03/27 00:20:23;;;;;;;;;;;;;;;;;;415253;23;1406;-83
2024/03/27 00:20:33;;;;;;;;;;;;;;;;;;415698;23;919;-82
2024/03/27 00:20:44;;;;;;;;;;;;;;;;;;416310;23;1364;-82
2024/03/27 00:20:54;;;;;;;;;;;;;;;;;;416482;23;1667;-82
2024/03/27 00:21:04;;;;;;;;;;;;;;;;;;418463;23;907;-82
2024/03/27 00:21:14;;;;;;;;;;;;;;;;;;416391;23;967;-82
2024/03/27 00:21:25;;;;;;;;;;;;;;;;;;416355;23;943;-82
2024/03/27 00:21:36;;;;;;;;;;;;;;;;;;416303;23;1096;-83
2024/03/27 00:21:46;;;;;;;;;;;;;;;;;;416428;23;1242;-83
2024/03/27 00:21:57;;;;;;;;;;;;;;;;;;412586;24;1000;-83
2024/03/27 00:22:08;;;;;;;;;;;;;;;;;;412607;24;911;-83
2024/03/27 00:22:18;;;;;;;;;;;;;;;;;;412258;23;1276;-82
2024/03/27 00:22:28;;;;;;;;;;;;;;;;;;412581;24;943;-82
2024/03/27 00:22:38;;;;;;;;;;;;;;;;;;414443;23;1214;-82
2024/03/27 00:22:49;;;;;;;;;;;;;;;;;;414456;23;895;-82
2024/03/27 00:22:59;;;;;;;;;;;;;;;;;;414418;23;971;-82
2024/03/27 00:23:09;;;;;;;;;;;;;;;;;;412608;24;1269;-83
2024/03/27 00:23:19;;;;;;;;;;;;;;;;;;412698;24;900;-82
2024/03/27 00:23:30;;;;;;;;;;;;;;;;;;412530;24;1275;-82
2024/03/27 00:23:40;;;;;;;;;;;;;;;;;;416312;23;977;-82
2024/03/27 00:23:50;;;;;;;;;;;;;;;;;;418530;23;926;-82
2024/03/27 00:24:00;;;;;;;;;;;;;;;;;;414491;23;1326;-82
2024/03/27 00:24:11;;;;;;;;;;;;;;;;;;416466;23;962;-83
2024/03/27 00:24:21;;;;;;;;;;;;;;;;;;416100;23;1161;-82
2024/03/27 00:24:32;;;;;;;;;;;;;;;;;;416430;23;1074;-82
2024/03/27 00:24:42;;;;;;;;;;;;;;;;;;414562;23;997;-82
2024/03/27 00:24:52;;;;;;;;;;;;;;;;;;414427;23;931;-82
2024/03/27 00:25:03;;;;;;;;;;;;;;;;;;416478;23;989;-82
2024/03/27 00:25:14;;;;;;;;;;;;;;;;;;414452;23;1238;-83
2024/03/27 00:25:25;;;;;;;;;;;;;;;;;;414266;23;1246;-82
2024/03/27 00:25:35;;;;;;;;;;;;;;;;;;414513;23;856;-82
2024/03/27 00:25:45;;;;;;;;;;;;;;;;;;416396;23;1142;-83
2024/03/27 00:25:56;;;;;;;;;;;;;;;;;;416559;23;950;-82
2024/03/27 00:26:06;;;;;;;;;;;;;;;;;;414212;23;975;-82
2024/03/27 00:26:17;;;;;;;;;;;;;;;;;;416235;23;1411;-82
2024/03/27 00:26:27;;;;;;;;;;;;;;;;;;416428;23;971;-83
2024/03/27 00:26:37;;;;;;;;;;;;;;;;;;416482;23;1134;-83
2024/03/27 00:26:47;;;;;;;;;;;;;;;;;;416503;23;1014;-83
2024/03/27 00:26:58;;;;;;;;;;;;;;;;;;416506;23;970;-83
2024/03/27 00:27:08;;;;;;;;;;;;;;;;;;416448;23;998;-83
2024/03/27 00:27:18;;;;;;;;;;;;;;;;;;416516;23;958;-83
2024/03/27 00:27:28;;;;;;;;;;;;;;;;;;416137;23;993;-83
2024/03/27 00:27:39;;;;;;;;;;;;;;;;;;412581;23;1237;-83
2024/03/27 00:27:49;;;;;;;;;;;;;;;;;;414394;23;1222;-83
2024/03/27 00:28:00;;;;;;;;;;;;;;;;;;416375;23;966;-83
2024/03/27 00:28:10;;;;;;;;;;;;;;;;;;416496;23;955;-83
2024/03/27 00:28:20;;;;;;;;;;;;;;;;;;416198;23;1169;-82
2024/03/27 00:28:30;;;;;;;;;;;;;;;;;;416443;23;989;-82
2024/03/27 00:28:41;;;;;;;;;;;;;;;;;;414622;23;1000;-82
2024/03/27 00:28:51;;;;;;;;;;;;;;;;;;414487;23;955;-82
2024/03/27 00:29:01;;;;;;;;;;;;;;;;;;414545;23;777;-82
2024/03/27 00:29:12;;;;;;;;;;;;;;;;;;412554;24;991;-82
2024/03/27 00:29:23;;;;;;;;;;;;;;;;;;412515;24;959;-82
2024/03/27 00:29:33;;;;;;;;;;;;;;;;;;410658;23;877;-82
2024/03/27 00:29:43;;;;;;;;;;;;;;;;;;412538;24;1163;-82
2024/03/27 00:29:54;;;;;;;;;;;;;;;;;;414450;23;1215;-82
2024/03/27 00:30:05;;;;;;;;;;;;;;;;;;418230;23;1294;-82
2024/03/27 00:30:15;;;;;;;;;;;;;;;;;;418476;23;1009;-82
2024/03/27 00:30:25;;;;;;;;;;;;;;;;;;418370;23;1145;-82
2024/03/27 00:30:36;;;;;;;;;;;;;;;;;;416470;23;1210;-82
2024/03/27 00:30:46;;;;;;;;;;;;;;;;;;416415;23;979;-82
2024/03/27 00:30:56;;;;;;;;;;;;;;;;;;414460;23;1273;-82
2024/03/27 00:31:07;;;;;;;;;;;;;;;;;;416370;23;1273;-83
2024/03/27 00:31:17;;;;;;;;;;;;;;;;;;416592;23;884;-83
2024/03/27 00:31:28;;;;;;;;;;;;;;;;;;414563;23;832;-82
2024/03/27 00:31:39;;;;;;;;;;;;;;;;;;414640;23;974;-82
2024/03/27 00:31:49;;;;;;;;;;;;;;;;;;414372;23;1213;-82
2024/03/27 00:32:00;;;;;;;;;;;;;;;;;;416580;23;816;-82
2024/03/27 00:32:10;;;;;;;;;;;;;;;;;;414507;23;1166;-82
2024/03/27 00:32:20;;;;;;;;;;;;;;;;;;414603;23;939;-82
2024/03/27 00:32:30;;;;;;;;;;;;;;;;;;414420;23;1270;-82
2024/03/27 00:32:41;;;;;;;;;;;;;;;;;;418388;23;1006;-83
2024/03/27 00:32:51;;;;;;;;;;;;;;;;;;416236;23;835;-83
2024/03/27 00:33:02;;;;;;;;;;;;;;;;;;414540;23;935;-83
2024/03/27 00:33:14;;;;;;;;;;;;;;;;;;416366;23;939;-83
2024/03/27 00:33:24;;;;;;;;;;;;;;;;;;414385;23;1380;-82
2024/03/27 00:33:34;;;;;;;;;;;;;;;;;;414209;23;1279;-82
2024/03/27 00:33:45;;;;;;;;;;;;;;;;;;414610;23;939;-82
2024/03/27 00:33:55;;;;;;;;;;;;;;;;;;414492;23;990;-83
2024/03/27 00:34:05;;;;;;;;;;;;;;;;;;414538;23;1005;-83
2024/03/27 00:34:15;;;;;;;;;;;;;;;;;;416258;23;942;-83
2024/03/27 00:34:26;;;;;;;;;;;;;;;;;;414413;23;1489;-81
2024/03/27 00:34:36;;;;;;;;;;;;;;;;;;414533;23;962;-82
2024/03/27 00:34:46;;;;;;;;;;;;;;;;;;412687;23;801;-82
2024/03/27 00:34:58;;;;;;;;;;;;;;;;;;412696;24;904;-82
2024/03/27 00:35:08;;;;;;;;;;;;;;;;;;414392;23;1227;-83
2024/03/27 00:35:18;;;;;;;;;;;;;;;;;;414291;23;1208;-83
2024/03/27 00:35:29;;;;;;;;;;;;;;;;;;414517;23;991;-82
2024/03/27 00:35:39;;;;;;;;;;;;;;;;;;416364;23;1034;-82
2024/03/27 00:35:55;;;;;;;;;;;;;;;;;;416453;23;1007;-82
2024/03/27 00:36:06;;;;;;;;;;;;;;;;;;416537;23;1039;-82
2024/03/27 00:36:16;;;;;;;;;;;;;;;;;;414580;23;919;-82
2024/03/27 00:36:27;;;;;;;;;;;;;;;;;;413877;23;1252;-82
2024/03/27 00:36:37;;;;;;;;;;;;;;;;;;418467;23;970;-82
2024/03/27 00:36:48;;;;;;;;;;;;;;;;;;418478;23;974;-82
2024/03/27 00:36:59;;;;;;;;;;;;;;;;;;418258;23;989;-82
2024/03/27 00:37:10;;;;;;;;;;;;;;;;;;414437;23;1066;-82
2024/03/27 00:37:20;;;;;;;;;;;;;;;;;;414567;23;845;-82
2024/03/27 00:37:30;;;;;;;;;;;;;;;;;;416512;23;808;-82
2024/03/27 00:37:40;;;;;;;;;;;;;;;;;;416248;23;998;-83
2024/03/27 00:37:53;;;;;;;;;;;;;;;;;;416498;23;923;-83
2024/03/27 00:38:04;;;;;;;;;;;;;;;;;;416393;23;1046;-83
2024/03/27 00:38:14;;;;;;;;;;;;;;;;;;416375;23;954;-82
2024/03/27 00:38:25;;;;;;;;;;;;;;;;;;418241;23;1161;-82
2024/03/27 00:38:36;;;;;;;;;;;;;;;;;;418463;23;1484;-82
2024/03/27 00:38:47;;;;;;;;;;;;;;;;;;416452;23;971;-82
2024/03/27 00:38:57;;;;;;;;;;;;;;;;;;416272;23;1104;-83
2024/03/27 00:39:07;;;;;;;;;;;;;;;;;;414155;23;1269;-83
2024/03/27 00:39:17;;;;;;;;;;;;;;;;;;416449;23;871;-82
2024/03/27 00:39:28;;;;;;;;;;;;;;;;;;416175;23;998;-82
2024/03/27 00:39:38;;;;;;;;;;;;;;;;;;416589;23;825;-82
2024/03/27 00:39:48;;;;;;;;;;;;;;;;;;416396;23;1240;-83
2024/03/27 00:39:58;;;;;;;;;;;;;;;;;;416538;23;1017;-82
2024/03/27 00:40:09;;;;;;;;;;;;;;;;;;416356;23;1065;-82
2024/03/27 00:40:19;;;;;;;;;;;;;;;;;;418214;23;1207;-82
2024/03/27 00:40:29;;;;;;;;;;;;;;;;;;418413;23;1014;-83
2024/03/27 00:40:39;;;;;;;;;;;;;;;;;;412512;24;1265;-83
2024/03/27 00:40:50;;;;;;;;;;;;;;;;;;414286;23;975;-83
2024/03/27 00:41:00;;;;;;;;;;;;;;;;;;414482;23;1309;-83
2024/03/27 00:41:10;;;;;;;;;;;;;;;;;;418031;23;1101;-83
2024/03/27 00:41:21;;;;;;;;;;;;;;;;;;418490;23;1292;-83
2024/03/27 00:41:31;;;;;;;;;;;;;;;;;;416258;23;971;-82
2024/03/27 00:41:41;;;;;;;;;;;;;;;;;;420483;23;1197;-82
2024/03/27 00:41:51;;;;;;;;;;;;;;;;;;418427;23;982;-82
2024/03/27 00:42:02;;;;;;;;;;;;;;;;;;416463;23;1180;-82
2024/03/27 00:42:12;;;;;;;;;;;;;;;;;;414475;23;1171;-82
2024/03/27 00:42:22;;;;;;;;;;;;;;;;;;414495;23;991;-82
2024/03/27 00:42:32;;;;;;;;;;;;;;;;;;414425;23;1257;-82
2024/03/27 00:42:44;;;;;;;;;;;;;;;;;;414287;23;1316;-82
2024/03/27 00:42:55;;;;;;;;;;;;;;;;;;414334;23;805;-82
2024/03/27 00:43:06;;;;;;;;;;;;;;;;;;414488;23;991;-82
2024/03/27 00:43:16;;;;;;;;;;;;;;;;;;414512;23;986;-83
2024/03/27 00:43:26;;;;;;;;;;;;;;;;;;416606;23;999;-82
2024/03/27 00:43:37;;;;;;;;;;;;;;;;;;418315;23;1237;-82
2024/03/27 00:43:47;;;;;;;;;;;;;;;;;;418502;23;1022;-82
2024/03/27 00:43:57;;;;;;;;;;;;;;;;;;412362;24;1281;-82
2024/03/27 00:44:07;;;;;;;;;;;;;;;;;;414437;23;1409;-82
2024/03/27 00:44:17;;;;;;;;;;;;;;;;;;416408;23;1385;-82
2024/03/27 00:44:28;;;;;;;;;;;;;;;;;;416502;23;982;-82
2024/03/27 00:44:38;;;;;;;;;;;;;;;;;;418574;23;816;-82
2024/03/27 00:44:48;;;;;;;;;;;;;;;;;;416393;23;1239;-82
2024/03/27 00:44:58;;;;;;;;;;;;;;;;;;416522;23;781;-82
2024/03/27 00:45:08;;;;;;;;;;;;;;;;;;414439;23;1276;-83
2024/03/27 00:45:19;;;;;;;;;;;;;;;;;;414335;23;1905;-82
2024/03/27 00:45:29;;;;;;;;;;;;;;;;;;416357;23;1445;-83
2024/03/27 00:45:39;;;;;;;;;;;;;;;;;;416174;23;1379;-82
2024/03/27 00:45:49;;;;;;;;;;;;;;;;;;414443;23;983;-83
2024/03/27 00:46:06;;;;;;;;;;;;;;;;;;416480;23;923;-82
2024/03/27 00:46:16;;;;;;;;;;;;;;;;;;412584;24;995;-82
2024/03/27 00:46:27;;;;;;;;;;;;;;;;;;416276;23;1152;-82
2024/03/27 00:46:37;;;;;;;;;;;;;;;;;;418435;23;1248;-82
2024/03/27 00:46:47;;;;;;;;;;;;;;;;;;416445;23;797;-83
2024/03/27 00:46:57;;;;;;;;;;;;;;;;;;416518;23;1054;-83
2024/03/27 00:47:07;;;;;;;;;;;;;;;;;;416461;23;840;-83
2024/03/27 00:47:18;;;;;;;;;;;;;;;;;;414439;23;1147;-83
2024/03/27 00:47:28;;;;;;;;;;;;;;;;;;416207;23;1533;-82
2024/03/27 00:47:38;;;;;;;;;;;;;;;;;;418476;23;970;-82
2024/03/27 00:47:48;;;;;;;;;;;;;;;;;;418210;23;832;-82
2024/03/27 00:47:58;;;;;;;;;;;;;;;;;;414450;23;1307;-83
2024/03/27 00:48:09;;;;;;;;;;;;;;;;;;412566;24;1018;-82
2024/03/27 00:48:19;;;;;;;;;;;;;;;;;;412629;24;979;-82
2024/03/27 00:48:30;;;;;;;;;;;;;;;;;;416536;23;1003;-82
2024/03/27 00:48:40;;;;;;;;;;;;;;;;;;414078;23;957;-82
2024/03/27 00:48:51;;;;;;;;;;;;;;;;;;416488;23;911;-82
2024/03/27 00:49:04;;;;;;;;;;;;;;;;;;416219;23;1288;-83
2024/03/27 00:49:14;;;;;;;;;;;;;;;;;;416116;23;1168;-83
2024/03/27 00:49:24;;;;;;;;;;;;;;;;;;416353;23;1227;-83
2024/03/27 00:49:35;;;;;;;;;;;;;;;;;;416461;23;970;-83
2024/03/27 00:49:45;;;;;;;;;;;;;;;;;;414427;23;1283;-82
2024/03/27 00:49:55;;;;;;;;;;;;;;;;;;414511;23;942;-82
2024/03/27 00:50:05;;;;;;;;;;;;;;;;;;420304;23;1292;-83
2024/03/27 00:50:16;;;;;;;;;;;;;;;;;;420198;23;958;-82
2024/03/27 00:50:27;;;;;;;;;;;;;;;;;;420516;23;1046;-82
2024/03/27 00:50:37;;;;;;;;;;;;;;;;;;420327;23;994;-82
2024/03/27 00:50:47;;;;;;;;;;;;;;;;;;418553;23;958;-82
2024/03/27 00:50:58;;;;;;;;;;;;;;;;;;414497;23;781;-82
2024/03/27 00:51:08;;;;;;;;;;;;;;;;;;414575;23;840;-82
2024/03/27 00:51:18;;;;;;;;;;;;;;;;;;414406;23;990;-82
2024/03/27 00:51:29;;;;;;;;;;;;;;;;;;416376;23;1321;-82
2024/03/27 00:51:39;;;;;;;;;;;;;;;;;;416292;23;982;-83
2024/03/27 00:51:49;;;;;;;;;;;;;;;;;;417979;23;978;-82
2024/03/27 00:51:59;;;;;;;;;;;;;;;;;;418345;23;1026;-83
2024/03/27 00:52:09;;;;;;;;;;;;;;;;;;416574;23;926;-82
2024/03/27 00:52:20;;;;;;;;;;;;;;;;;;418391;23;1339;-82
2024/03/27 00:52:30;;;;;;;;;;;;;;;;;;418440;23;986;-82
2024/03/27 00:52:40;;;;;;;;;;;;;;;;;;418540;23;1042;-82
2024/03/27 00:52:50;;;;;;;;;;;;;;;;;;416313;23;1236;-82
2024/03/27 00:53:01;;;;;;;;;;;;;;;;;;418474;23;954;-82
2024/03/27 00:53:11;;;;;;;;;;;;;;;;;;416495;23;761;-82
2024/03/27 00:53:21;;;;;;;;;;;;;;;;;;414277;23;1027;-82
2024/03/27 00:53:33;;;;;;;;;;;;;;;;;;414582;23;1002;-82
2024/03/27 00:53:43;;;;;;;;;;;;;;;;;;414390;23;919;-82
2024/03/27 00:53:54;;;;;;;;;;;;;;;;;;416371;23;966;-83
2024/03/27 00:54:04;;;;;;;;;;;;;;;;;;418327;23;1190;-83
2024/03/27 00:54:14;;;;;;;;;;;;;;;;;;416337;23;1155;-83
2024/03/27 00:54:24;;;;;;;;;;;;;;;;;;416280;23;1271;-83
2024/03/27 00:54:34;;;;;;;;;;;;;;;;;;416249;23;1010;-82
2024/03/27 00:54:45;;;;;;;;;;;;;;;;;;416480;23;982;-82
2024/03/27 00:54:55;;;;;;;;;;;;;;;;;;416317;23;998;-82
2024/03/27 00:55:05;;;;;;;;;;;;;;;;;;416492;23;793;-82
2024/03/27 00:55:15;;;;;;;;;;;;;;;;;;418458;23;1021;-82
2024/03/27 00:55:25;;;;;;;;;;;;;;;;;;418204;23;994;-83
2024/03/27 00:55:36;;;;;;;;;;;;;;;;;;418290;23;954;-83
2024/03/27 00:55:55;;;;;;;;;;;;;;;;;;414404;23;1253;-83
2024/03/27 00:56:06;;;;;;;;;;;;;;;;;;416788;23;903;-82
2024/03/27 00:56:16;;;;;;;;;;;;;;;;;;416584;23;1200;-82
2024/03/27 00:56:29;;;;;;;;;;;;;;;;;;418474;23;978;-82
2024/03/27 00:56:40;;;;;;;;;;;;;;;;;;416233;23;1325;-82
2024/03/27 00:56:50;;;;;;;;;;;;;;;;;;416542;23;824;-82
2024/03/27 00:57:00;;;;;;;;;;;;;;;;;;416202;23;989;-82
2024/03/27 00:57:10;;;;;;;;;;;;;;;;;;416446;23;867;-83
2024/03/27 00:57:20;;;;;;;;;;;;;;;;;;416466;23;994;-83
2024/03/27 00:57:31;;;;;;;;;;;;;;;;;;416560;23;947;-83
2024/03/27 00:57:42;;;;;;;;;;;;;;;;;;416348;23;819;-83
2024/03/27 00:57:52;;;;;;;;;;;;;;;;;;414482;23;942;-83
2024/03/27 00:58:02;;;;;;;;;;;;;;;;;;414563;23;1002;-83
2024/03/27 00:58:13;;;;;;;;;;;;;;;;;;416696;23;1051;-83
2024/03/27 00:58:23;;;;;;;;;;;;;;;;;;416510;23;789;-83
2024/03/27 00:58:33;;;;;;;;;;;;;;;;;;414622;23;904;-83
2024/03/27 00:58:44;;;;;;;;;;;;;;;;;;414263;23;1333;-83
2024/03/27 00:58:54;;;;;;;;;;;;;;;;;;414571;23;927;-83
2024/03/27 00:59:04;;;;;;;;;;;;;;;;;;414405;23;994;-82
2024/03/27 00:59:14;;;;;;;;;;;;;;;;;;416511;23;971;-82
2024/03/27 00:59:25;;;;;;;;;;;;;;;;;;418502;23;843;-82
2024/03/27 00:59:35;;;;;;;;;;;;;;;;;;418438;23;1145;-82
2024/03/27 00:59:46;;;;;;;;;;;;;;;;;;418407;23;967;-82
2024/03/27 00:59:58;;;;;;;;;;;;;;;;;;418522;23;963;-82
2024/03/27 01:00:10;;;;;;;;;;;;;;;;;;418375;23;946;-82
2024/03/27 01:00:21;;;;;;;;;;;;;;;;;;416379;23;1415;-82
2024/03/27 01:00:31;;;;;;;;;;;;;;;;;;414479;23;809;-83
2024/03/27 01:00:41;;;;;;;;;;;;;;;;;;414523;23;789;-82
2024/03/27 01:00:51;;;;;;;;;;;;;;;;;;414349;23;982;-82
2024/03/27 01:01:02;;;;;;;;;;;;;;;;;;414524;23;999;-82
2024/03/27 01:01:12;;;;;;;;;;;;;;;;;;414404;23;970;-82
2024/03/27 01:01:23;;;;;;;;;;;;;;;;;;414516;23;860;-82
2024/03/27 01:01:34;;;;;;;;;;;;;;;;;;412328;24;1042;-82
2024/03/27 01:01:44;;;;;;;;;;;;;;;;;;412610;24;813;-82
2024/03/27 01:01:54;;;;;;;;;;;;;;;;;;412591;24;975;-82
2024/03/27 01:02:05;;;;;;;;;;;;;;;;;;414373;23;974;-82
2024/03/27 01:02:15;;;;;;;;;;;;;;;;;;414257;23;1277;-82
2024/03/27 01:02:25;;;;;;;;;;;;;;;;;;416444;23;887;-82
2024/03/27 01:02:36;;;;;;;;;;;;;;;;;;416153;23;1153;-82
2024/03/27 01:02:47;;;;;;;;;;;;;;;;;;416555;23;927;-82
2024/03/27 01:02:57;;;;;;;;;;;;;;;;;;416428;23;1038;-82
2024/03/27 01:03:07;;;;;;;;;;;;;;;;;;414474;23;820;-82
2024/03/27 01:03:18;;;;;;;;;;;;;;;;;;418364;23;1349;-83
2024/03/27 01:03:29;;;;;;;;;;;;;;;;;;418512;23;986;-83
2024/03/27 01:03:40;;;;;;;;;;;;;;;;;;418230;23;1045;-83
2024/03/27 01:03:50;;;;;;;;;;;;;;;;;;418401;23;1063;-83
2024/03/27 01:04:00;;;;;;;;;;;;;;;;;;420313;23;1230;-83
2024/03/27 01:04:11;;;;;;;;;;;;;;;;;;416336;23;1151;-82
2024/03/27 01:04:21;;;;;;;;;;;;;;;;;;416521;23;834;-82
2024/03/27 01:04:32;;;;;;;;;;;;;;;;;;416412;23;1205;-82
2024/03/27 01:04:42;;;;;;;;;;;;;;;;;;416563;23;744;-82
2024/03/27 01:04:52;;;;;;;;;;;;;;;;;;416441;23;1024;-82
2024/03/27 01:05:02;;;;;;;;;;;;;;;;;;416198;23;966;-82
2024/03/27 01:05:13;;;;;;;;;;;;;;;;;;416197;23;973;-82
2024/03/27 01:05:23;;;;;;;;;;;;;;;;;;416406;23;1911;-82
2024/03/27 01:05:33;;;;;;;;;;;;;;;;;;416446;23;1005;-82
2024/03/27 01:05:44;;;;;;;;;;;;;;;;;;418366;23;1001;-82
2024/03/27 01:05:54;;;;;;;;;;;;;;;;;;418434;23;989;-82
2024/03/27 01:06:04;;;;;;;;;;;;;;;;;;418311;23;1264;-82
2024/03/27 01:06:14;;;;;;;;;;;;;;;;;;418425;23;1492;-82
2024/03/27 01:06:25;;;;;;;;;;;;;;;;;;416192;23;1306;-82
2024/03/27 01:06:35;;;;;;;;;;;;;;;;;;416318;23;986;-82
2024/03/27 01:06:45;;;;;;;;;;;;;;;;;;416259;23;951;-82
2024/03/27 01:06:55;;;;;;;;;;;;;;;;;;414437;23;784;-82
2024/03/27 01:07:05;;;;;;;;;;;;;;;;;;414415;23;1131;-82
2024/03/27 01:07:16;;;;;;;;;;;;;;;;;;418467;23;1284;-82
2024/03/27 01:07:26;;;;;;;;;;;;;;;;;;418119;23;841;-82
2024/03/27 01:07:36;;;;;;;;;;;;;;;;;;416452;23;1412;-83
2024/03/27 01:07:48;;;;;;;;;;;;;;;;;;418414;23;831;-83
2024/03/27 01:07:58;;;;;;;;;;;;;;;;;;416466;23;845;-81
2024/03/27 01:08:08;;;;;;;;;;;;;;;;;;414419;23;1243;-83
2024/03/27 01:08:20;;;;;;;;;;;;;;;;;;416443;23;1398;-82
2024/03/27 01:08:30;;;;;;;;;;;;;;;;;;415876;23;930;-82
2024/03/27 01:08:41;;;;;;;;;;;;;;;;;;416364;23;1398;-83
2024/03/27 01:08:51;;;;;;;;;;;;;;;;;;416454;23;915;-82
2024/03/27 01:09:02;;;;;;;;;;;;;;;;;;416466;23;1045;-82
2024/03/27 01:09:13;;;;;;;;;;;;;;;;;;416486;23;887;-82
2024/03/27 01:09:23;;;;;;;;;;;;;;;;;;416464;23;1295;-82
2024/03/27 01:09:34;;;;;;;;;;;;;;;;;;414295;23;792;-82
2024/03/27 01:09:44;;;;;;;;;;;;;;;;;;414478;23;1021;-82
2024/03/27 01:09:54;;;;;;;;;;;;;;;;;;412505;24;1058;-82
2024/03/27 01:10:05;;;;;;;;;;;;;;;;;;416201;23;1290;-82
2024/03/27 01:10:15;;;;;;;;;;;;;;;;;;414326;23;1268;-82
2024/03/27 01:10:26;;;;;;;;;;;;;;;;;;414519;23;1291;-82
2024/03/27 01:10:36;;;;;;;;;;;;;;;;;;416247;23;1293;-83
2024/03/27 01:10:47;;;;;;;;;;;;;;;;;;418432;23;1268;-83
2024/03/27 01:10:57;;;;;;;;;;;;;;;;;;416393;23;962;-83
2024/03/27 01:11:08;;;;;;;;;;;;;;;;;;414488;23;1148;-83
2024/03/27 01:11:18;;;;;;;;;;;;;;;;;;414566;23;1002;-83
2024/03/27 01:11:28;;;;;;;;;;;;;;;;;;414478;23;1218;-83
2024/03/27 01:11:39;;;;;;;;;;;;;;;;;;414400;23;1006;-83
2024/03/27 01:11:49;;;;;;;;;;;;;;;;;;414549;23;984;-82
2024/03/27 01:11:59;;;;;;;;;;;;;;;;;;412615;24;800;-82
2024/03/27 01:12:09;;;;;;;;;;;;;;;;;;412576;24;982;-82
2024/03/27 01:12:19;;;;;;;;;;;;;;;;;;412590;24;946;-82
2024/03/27 01:12:30;;;;;;;;;;;;;;;;;;414460;23;991;-82
2024/03/27 01:12:41;;;;;;;;;;;;;;;;;;414442;23;978;-82
2024/03/27 01:12:51;;;;;;;;;;;;;;;;;;414562;23;978;-82
2024/03/27 01:13:01;;;;;;;;;;;;;;;;;;416462;23;1254;-83
2024/03/27 01:13:17;;;;;;;;;;;;;;;;;;416493;23;962;-83
2024/03/27 01:13:27;;;;;;;;;;;;;;;;;;418293;23;1196;-83
2024/03/27 01:13:37;;;;;;;;;;;;;;;;;;418374;23;1163;-83
2024/03/27 01:13:48;;;;;;;;;;;;;;;;;;416405;23;1297;-83
2024/03/27 01:13:59;;;;;;;;;;;;;;;;;;416542;23;994;-83
2024/03/27 01:14:09;;;;;;;;;;;;;;;;;;414438;23;1034;-83
2024/03/27 01:14:19;;;;;;;;;;;;;;;;;;414541;23;959;-82
2024/03/27 01:14:29;;;;;;;;;;;;;;;;;;412612;24;836;-82
2024/03/27 01:14:40;;;;;;;;;;;;;;;;;;412633;24;1002;-83
2024/03/27 01:14:51;;;;;;;;;;;;;;;;;;416411;23;1180;-82
2024/03/27 01:15:01;;;;;;;;;;;;;;;;;;416524;23;970;-83